sensor_id;sensor_type;location;lat;lon;timestamp;pressure;altitude;pressure_sealevel;temperature
64947;BMP280;51469;52.150;4.682;2023-04-03T00:01:17;103314.34;;;11.22
64947;BMP280;51469;52.150;4.682;2023-04-03T00:03:42;103327.94;;;11.27
64947;BMP280;51469;52.150;4.682;2023-04-03T00:06:09;103322.91;;;11.20
64947;BMP280;51469;52.150;4.682;2023-04-03T00:08:36;103321.59;;;11.09
64947;BMP280;51469;52.150;4.682;2023-04-03T00:11:02;103328.25;;;11.17
64947;BMP280;51469;52.150;4.682;2023-04-03T00:13:28;103335.34;;;11.18
64947;BMP280;51469;52.150;4.682;2023-04-03T00:15:54;103322.75;;;11.17
64947;BMP280;51469;52.150;4.682;2023-04-03T00:18:20;103326.28;;;11.09
64947;BMP280;51469;52.150;4.682;2023-04-03T00:20:46;103334.97;;;11.11
64947;BMP280;51469;52.150;4.682;2023-04-03T00:23:12;103323.66;;;11.04
64947;BMP280;51469;52.150;4.682;2023-04-03T00:25:37;103330.78;;;11.05
64947;BMP280;51469;52.150;4.682;2023-04-03T00:28:04;103331.44;;;11.02
64947;BMP280;51469;52.150;4.682;2023-04-03T00:30:30;103331.69;;;10.92
64947;BMP280;51469;52.150;4.682;2023-04-03T00:32:55;103326.38;;;10.95
64947;BMP280;51469;52.150;4.682;2023-04-03T00:35:22;103316.34;;;10.91
64947;BMP280;51469;52.150;4.682;2023-04-03T00:37:47;103330.09;;;10.91
64947;BMP280;51469;52.150;4.682;2023-04-03T00:40:16;103332.19;;;10.94
64947;BMP280;51469;52.150;4.682;2023-04-03T00:42:43;103322.94;;;10.90
64947;BMP280;51469;52.150;4.682;2023-04-03T00:47:43;103342.03;;;10.95
64947;BMP280;51469;52.150;4.682;2023-04-03T00:50:09;103334.94;;;10.94
64947;BMP280;51469;52.150;4.682;2023-04-03T00:52:34;103344.41;;;10.88
64947;BMP280;51469;52.150;4.682;2023-04-03T00:55:04;103331.97;;;10.82
64947;BMP280;51469;52.150;4.682;2023-04-03T00:57:31;103332.41;;;10.75
64947;BMP280;51469;52.150;4.682;2023-04-03T01:00:03;103332.59;;;10.79
64947;BMP280;51469;52.150;4.682;2023-04-03T01:02:29;103337.91;;;10.75
64947;BMP280;51469;52.150;4.682;2023-04-03T01:04:55;103344.22;;;10.76
64947;BMP280;51469;52.150;4.682;2023-04-03T01:07:24;103344.84;;;10.73
64947;BMP280;51469;52.150;4.682;2023-04-03T01:09:55;103352.19;;;10.64
64947;BMP280;51469;52.150;4.682;2023-04-03T01:12:30;103343.72;;;10.74
64947;BMP280;51469;52.150;4.682;2023-04-03T01:15:02;103340.34;;;10.77
64947;BMP280;51469;52.150;4.682;2023-04-03T01:17:53;103339.66;;;10.71
64947;BMP280;51469;52.150;4.682;2023-04-03T01:23:13;103349.72;;;10.76
64947;BMP280;51469;52.150;4.682;2023-04-03T01:25:46;103346.81;;;10.81
64947;BMP280;51469;52.150;4.682;2023-04-03T01:28:22;103345.84;;;10.77
64947;BMP280;51469;52.150;4.682;2023-04-03T01:30:59;103348.22;;;10.70
64947;BMP280;51469;52.150;4.682;2023-04-03T01:33:28;103359.06;;;10.75
64947;BMP280;51469;52.150;4.682;2023-04-03T01:35:54;103360.31;;;10.69
64947;BMP280;51469;52.150;4.682;2023-04-03T01:38:19;103355.09;;;10.59
64947;BMP280;51469;52.150;4.682;2023-04-03T01:40:45;103353.47;;;10.58
64947;BMP280;51469;52.150;4.682;2023-04-03T01:43:11;103353.97;;;10.60
64947;BMP280;51469;52.150;4.682;2023-04-03T01:45:36;103364.47;;;10.58
64947;BMP280;51469;52.150;4.682;2023-04-03T01:48:02;103355.09;;;10.59
64947;BMP280;51469;52.150;4.682;2023-04-03T01:50:27;103347.59;;;10.51
64947;BMP280;51469;52.150;4.682;2023-04-03T01:52:52;103349.53;;;10.50
64947;BMP280;51469;52.150;4.682;2023-04-03T01:55:18;103346.63;;;10.47
64947;BMP280;51469;52.150;4.682;2023-04-03T01:57:43;103335.25;;;10.40
64947;BMP280;51469;52.150;4.682;2023-04-03T02:00:09;103338.72;;;10.32
64947;BMP280;51469;52.150;4.682;2023-04-03T02:02:35;103346.00;;;10.50
64947;BMP280;51469;52.150;4.682;2023-04-03T02:05:00;103359.88;;;10.45
64947;BMP280;51469;52.150;4.682;2023-04-03T02:07:26;103355.59;;;10.39
64947;BMP280;51469;52.150;4.682;2023-04-03T02:09:51;103351.56;;;10.36
64947;BMP280;51469;52.150;4.682;2023-04-03T02:12:17;103354.97;;;10.42
64947;BMP280;51469;52.150;4.682;2023-04-03T02:14:42;103349.72;;;10.32
64947;BMP280;51469;52.150;4.682;2023-04-03T02:17:07;103362.84;;;10.35
64947;BMP280;51469;52.150;4.682;2023-04-03T02:19:36;103343.69;;;10.21
64947;BMP280;51469;52.150;4.682;2023-04-03T02:22:05;103361.34;;;10.15
64947;BMP280;51469;52.150;4.682;2023-04-03T02:24:31;103375.34;;;10.27
64947;BMP280;51469;52.150;4.682;2023-04-03T02:26:57;103375.06;;;10.29
64947;BMP280;51469;52.150;4.682;2023-04-03T02:29:22;103383.91;;;10.26
64947;BMP280;51469;52.150;4.682;2023-04-03T02:31:48;103374.75;;;10.30
64947;BMP280;51469;52.150;4.682;2023-04-03T02:34:14;103364.50;;;10.22
64947;BMP280;51469;52.150;4.682;2023-04-03T02:36:39;103362.19;;;10.16
64947;BMP280;51469;52.150;4.682;2023-04-03T02:39:05;103376.03;;;10.11
64947;BMP280;51469;52.150;4.682;2023-04-03T02:41:31;103385.78;;;10.17
64947;BMP280;51469;52.150;4.682;2023-04-03T02:44:03;103393.47;;;10.15
64947;BMP280;51469;52.150;4.682;2023-04-03T02:46:29;103372.75;;;10.09
64947;BMP280;51469;52.150;4.682;2023-04-03T02:48:54;103379.06;;;10.09
64947;BMP280;51469;52.150;4.682;2023-04-03T02:51:20;103371.78;;;10.05
64947;BMP280;51469;52.150;4.682;2023-04-03T02:53:45;103372.00;;;9.95
64947;BMP280;51469;52.150;4.682;2023-04-03T02:56:11;103370.53;;;9.89
64947;BMP280;51469;52.150;4.682;2023-04-03T02:58:36;103372.22;;;9.85
64947;BMP280;51469;52.150;4.682;2023-04-03T03:01:02;103378.75;;;9.89
64947;BMP280;51469;52.150;4.682;2023-04-03T03:03:27;103375.91;;;9.80
64947;BMP280;51469;52.150;4.682;2023-04-03T03:06:07;103382.81;;;9.78
64947;BMP280;51469;52.150;4.682;2023-04-03T03:08:33;103384.44;;;9.79
64947;BMP280;51469;52.150;4.682;2023-04-03T03:10:58;103379.16;;;9.69
64947;BMP280;51469;52.150;4.682;2023-04-03T03:13:24;103390.81;;;9.74
64947;BMP280;51469;52.150;4.682;2023-04-03T03:15:49;103391.63;;;9.75
64947;BMP280;51469;52.150;4.682;2023-04-03T03:18:15;103398.88;;;9.71
64947;BMP280;51469;52.150;4.682;2023-04-03T03:20:40;103392.06;;;9.68
64947;BMP280;51469;52.150;4.682;2023-04-03T03:23:06;103408.19;;;9.70
64947;BMP280;51469;52.150;4.682;2023-04-03T03:25:31;103399.97;;;9.70
64947;BMP280;51469;52.150;4.682;2023-04-03T03:27:56;103402.59;;;9.75
64947;BMP280;51469;52.150;4.682;2023-04-03T03:30:22;103404.50;;;9.74
64947;BMP280;51469;52.150;4.682;2023-04-03T03:32:48;103406.94;;;9.76
64947;BMP280;51469;52.150;4.682;2023-04-03T03:35:13;103389.09;;;9.65
64947;BMP280;51469;52.150;4.682;2023-04-03T03:37:38;103396.81;;;9.63
64947;BMP280;51469;52.150;4.682;2023-04-03T03:40:04;103388.41;;;9.59
64947;BMP280;51469;52.150;4.682;2023-04-03T03:42:30;103404.94;;;9.68
64947;BMP280;51469;52.150;4.682;2023-04-03T03:44:56;103395.22;;;9.62
64947;BMP280;51469;52.150;4.682;2023-04-03T03:47:21;103398.69;;;9.54
64947;BMP280;51469;52.150;4.682;2023-04-03T03:49:49;103403.13;;;9.49
64947;BMP280;51469;52.150;4.682;2023-04-03T03:52:15;103411.66;;;9.62
64947;BMP280;51469;52.150;4.682;2023-04-03T03:54:40;103402.91;;;9.60
64947;BMP280;51469;52.150;4.682;2023-04-03T03:57:06;103389.28;;;9.54
64947;BMP280;51469;52.150;4.682;2023-04-03T03:59:31;103401.91;;;9.56
64947;BMP280;51469;52.150;4.682;2023-04-03T04:01:56;103409.81;;;9.57
64947;BMP280;51469;52.150;4.682;2023-04-03T04:04:22;103404.66;;;9.56
64947;BMP280;51469;52.150;4.682;2023-04-03T04:06:47;103391.78;;;9.43
64947;BMP280;51469;52.150;4.682;2023-04-03T04:09:12;103388.50;;;9.40
64947;BMP280;51469;52.150;4.682;2023-04-03T04:11:38;103402.13;;;9.46
64947;BMP280;51469;52.150;4.682;2023-04-03T04:14:05;103406.25;;;9.43
64947;BMP280;51469;52.150;4.682;2023-04-03T04:16:30;103411.53;;;9.39
64947;BMP280;51469;52.150;4.682;2023-04-03T04:18:56;103411.44;;;9.44
64947;BMP280;51469;52.150;4.682;2023-04-03T04:21:21;103410.44;;;9.40
64947;BMP280;51469;52.150;4.682;2023-04-03T04:23:46;103409.41;;;9.36
64947;BMP280;51469;52.150;4.682;2023-04-03T04:26:12;103413.88;;;9.32
64947;BMP280;51469;52.150;4.682;2023-04-03T04:28:37;103412.75;;;9.33
64947;BMP280;51469;52.150;4.682;2023-04-03T04:31:02;103417.13;;;9.34
64947;BMP280;51469;52.150;4.682;2023-04-03T04:33:28;103417.19;;;9.29
64947;BMP280;51469;52.150;4.682;2023-04-03T04:35:53;103398.19;;;9.19
64947;BMP280;51469;52.150;4.682;2023-04-03T04:38:18;103398.59;;;9.13
64947;BMP280;51469;52.150;4.682;2023-04-03T04:40:44;103396.16;;;9.11
64947;BMP280;51469;52.150;4.682;2023-04-03T04:43:09;103415.84;;;9.13
64947;BMP280;51469;52.150;4.682;2023-04-03T04:45:39;103410.78;;;9.07
64947;BMP280;51469;52.150;4.682;2023-04-03T04:48:04;103384.56;;;8.87
64947;BMP280;51469;52.150;4.682;2023-04-03T04:50:30;103417.69;;;9.04
64947;BMP280;51469;52.150;4.682;2023-04-03T04:52:55;103423.72;;;9.01
64947;BMP280;51469;52.150;4.682;2023-04-03T04:55:21;103419.88;;;9.02
64947;BMP280;51469;52.150;4.682;2023-04-03T04:57:46;103419.47;;;8.95
64947;BMP280;51469;52.150;4.682;2023-04-03T05:00:12;103416.63;;;9.00
64947;BMP280;51469;52.150;4.682;2023-04-03T05:02:38;103426.91;;;9.08
64947;BMP280;51469;52.150;4.682;2023-04-03T05:05:03;103427.41;;;9.10
64947;BMP280;51469;52.150;4.682;2023-04-03T05:07:29;103430.47;;;9.09
64947;BMP280;51469;52.150;4.682;2023-04-03T05:09:54;103439.78;;;9.08
64947;BMP280;51469;52.150;4.682;2023-04-03T05:12:20;103442.81;;;9.06
64947;BMP280;51469;52.150;4.682;2023-04-03T05:14:45;103445.06;;;9.04
64947;BMP280;51469;52.150;4.682;2023-04-03T05:17:10;103444.00;;;9.00
64947;BMP280;51469;52.150;4.682;2023-04-03T05:19:36;103438.53;;;9.00
64947;BMP280;51469;52.150;4.682;2023-04-03T05:22:01;103447.81;;;9.04
64947;BMP280;51469;52.150;4.682;2023-04-03T05:24:26;103442.63;;;9.03
64947;BMP280;51469;52.150;4.682;2023-04-03T05:26:52;103458.16;;;9.07
64947;BMP280;51469;52.150;4.682;2023-04-03T05:29:17;103457.63;;;9.05
64947;BMP280;51469;52.150;4.682;2023-04-03T05:31:43;103463.03;;;9.10
64947;BMP280;51469;52.150;4.682;2023-04-03T05:34:08;103458.47;;;9.19
64947;BMP280;51469;52.150;4.682;2023-04-03T05:36:34;103455.25;;;9.17
64947;BMP280;51469;52.150;4.682;2023-04-03T05:38:59;103450.78;;;9.21
64947;BMP280;51469;52.150;4.682;2023-04-03T05:41:24;103446.94;;;9.22
64947;BMP280;51469;52.150;4.682;2023-04-03T05:43:50;103448.56;;;9.23
64947;BMP280;51469;52.150;4.682;2023-04-03T05:46:18;103456.78;;;9.23
64947;BMP280;51469;52.150;4.682;2023-04-03T05:48:44;103446.41;;;9.20
64947;BMP280;51469;52.150;4.682;2023-04-03T05:51:22;103459.34;;;9.33
64947;BMP280;51469;52.150;4.682;2023-04-03T05:53:49;103457.13;;;9.35
64947;BMP280;51469;52.150;4.682;2023-04-03T05:56:17;103443.50;;;9.30
64947;BMP280;51469;52.150;4.682;2023-04-03T05:58:42;103473.97;;;9.43
64947;BMP280;51469;52.150;4.682;2023-04-03T06:01:08;103464.00;;;9.46
64947;BMP280;51469;52.150;4.682;2023-04-03T06:03:33;103477.22;;;9.44
64947;BMP280;51469;52.150;4.682;2023-04-03T06:05:58;103460.13;;;9.47
64947;BMP280;51469;52.150;4.682;2023-04-03T06:08:24;103472.69;;;9.54
64947;BMP280;51469;52.150;4.682;2023-04-03T06:10:49;103467.19;;;9.54
64947;BMP280;51469;52.150;4.682;2023-04-03T06:13:16;103478.06;;;9.59
64947;BMP280;51469;52.150;4.682;2023-04-03T06:15:42;103480.09;;;9.67
64947;BMP280;51469;52.150;4.682;2023-04-03T06:18:07;103479.47;;;9.70
64947;BMP280;51469;52.150;4.682;2023-04-03T06:20:33;103468.94;;;9.77
64947;BMP280;51469;52.150;4.682;2023-04-03T06:22:58;103478.47;;;9.79
64947;BMP280;51469;52.150;4.682;2023-04-03T06:25:24;103476.13;;;9.86
64947;BMP280;51469;52.150;4.682;2023-04-03T06:27:49;103474.72;;;9.89
64947;BMP280;51469;52.150;4.682;2023-04-03T06:30:14;103481.19;;;9.93
64947;BMP280;51469;52.150;4.682;2023-04-03T06:32:40;103472.06;;;9.84
64947;BMP280;51469;52.150;4.682;2023-04-03T06:35:06;103480.47;;;10.01
64947;BMP280;51469;52.150;4.682;2023-04-03T06:37:31;103489.63;;;10.10
64947;BMP280;51469;52.150;4.682;2023-04-03T06:39:57;103492.03;;;10.25
64947;BMP280;51469;52.150;4.682;2023-04-03T06:42:23;103498.19;;;10.22
64947;BMP280;51469;52.150;4.682;2023-04-03T06:44:48;103491.31;;;10.33
64947;BMP280;51469;52.150;4.682;2023-04-03T06:47:15;103492.59;;;10.49
64947;BMP280;51469;52.150;4.682;2023-04-03T06:49:41;103495.63;;;10.61
64947;BMP280;51469;52.150;4.682;2023-04-03T06:52:07;103493.94;;;10.51
64947;BMP280;51469;52.150;4.682;2023-04-03T06:54:32;103498.03;;;10.76
64947;BMP280;51469;52.150;4.682;2023-04-03T06:56:58;103495.06;;;10.94
64947;BMP280;51469;52.150;4.682;2023-04-03T06:59:23;103501.13;;;11.05
64947;BMP280;51469;52.150;4.682;2023-04-03T07:01:49;103502.16;;;11.09
64947;BMP280;51469;52.150;4.682;2023-04-03T07:04:15;103508.06;;;11.33
64947;BMP280;51469;52.150;4.682;2023-04-03T07:06:40;103503.31;;;11.47
64947;BMP280;51469;52.150;4.682;2023-04-03T07:09:07;103503.53;;;11.59
64947;BMP280;51469;52.150;4.682;2023-04-03T07:11:34;103516.94;;;11.52
64947;BMP280;51469;52.150;4.682;2023-04-03T07:13:59;103516.03;;;11.65
64947;BMP280;51469;52.150;4.682;2023-04-03T07:16:25;103515.41;;;11.68
64947;BMP280;51469;52.150;4.682;2023-04-03T07:18:50;103510.28;;;11.92
64947;BMP280;51469;52.150;4.682;2023-04-03T07:21:16;103521.34;;;12.09
64947;BMP280;51469;52.150;4.682;2023-04-03T07:23:41;103520.84;;;12.07
64947;BMP280;51469;52.150;4.682;2023-04-03T07:26:07;103527.50;;;12.23
64947;BMP280;51469;52.150;4.682;2023-04-03T07:28:33;103542.09;;;12.23
64947;BMP280;51469;52.150;4.682;2023-04-03T07:31:02;103530.94;;;12.28
64947;BMP280;51469;52.150;4.682;2023-04-03T07:33:27;103527.19;;;12.33
64947;BMP280;51469;52.150;4.682;2023-04-03T07:35:53;103526.56;;;12.53
64947;BMP280;51469;52.150;4.682;2023-04-03T07:38:19;103537.59;;;12.36
64947;BMP280;51469;52.150;4.682;2023-04-03T07:40:48;103538.25;;;12.50
64947;BMP280;51469;52.150;4.682;2023-04-03T07:43:15;103537.59;;;12.53
64947;BMP280;51469;52.150;4.682;2023-04-03T07:45:40;103537.59;;;12.53
64947;BMP280;51469;52.150;4.682;2023-04-03T07:48:06;103530.16;;;12.62
64947;BMP280;51469;52.150;4.682;2023-04-03T07:50:32;103539.22;;;12.71
64947;BMP280;51469;52.150;4.682;2023-04-03T07:52:58;103538.44;;;12.70
64947;BMP280;51469;52.150;4.682;2023-04-03T07:55:23;103553.50;;;12.90
64947;BMP280;51469;52.150;4.682;2023-04-03T07:57:49;103546.34;;;12.89
64947;BMP280;51469;52.150;4.682;2023-04-03T08:02:57;103547.31;;;13.10
64947;BMP280;51469;52.150;4.682;2023-04-03T08:05:22;103549.75;;;12.77
64947;BMP280;51469;52.150;4.682;2023-04-03T08:07:48;103543.72;;;13.01
64947;BMP280;51469;52.150;4.682;2023-04-03T08:10:14;103551.50;;;13.16
64947;BMP280;51469;52.150;4.682;2023-04-03T08:12:40;103548.38;;;13.26
64947;BMP280;51469;52.150;4.682;2023-04-03T08:15:07;103552.38;;;13.37
64947;BMP280;51469;52.150;4.682;2023-04-03T08:17:33;103553.75;;;13.14
64947;BMP280;51469;52.150;4.682;2023-04-03T08:19:58;103559.09;;;13.27
64947;BMP280;51469;52.150;4.682;2023-04-03T08:22:24;103556.00;;;13.29
64947;BMP280;51469;52.150;4.682;2023-04-03T08:24:49;103556.94;;;13.41
64947;BMP280;51469;52.150;4.682;2023-04-03T08:27:15;103555.00;;;13.25
64947;BMP280;51469;52.150;4.682;2023-04-03T08:29:40;103562.16;;;13.26
64947;BMP280;51469;52.150;4.682;2023-04-03T08:32:05;103566.72;;;13.22
64947;BMP280;51469;52.150;4.682;2023-04-03T08:34:31;103560.34;;;13.38
64947;BMP280;51469;52.150;4.682;2023-04-03T08:37:00;103568.63;;;13.38
64947;BMP280;51469;52.150;4.682;2023-04-03T08:39:25;103567.59;;;13.60
64947;BMP280;51469;52.150;4.682;2023-04-03T08:41:52;103578.38;;;13.36
64947;BMP280;51469;52.150;4.682;2023-04-03T08:44:25;103578.81;;;13.55
64947;BMP280;51469;52.150;4.682;2023-04-03T08:55:01;103581.91;;;14.20
64947;BMP280;51469;52.150;4.682;2023-04-03T08:57:38;103570.66;;;13.96
64947;BMP280;51469;52.150;4.682;2023-04-03T09:00:25;103568.41;;;14.18
64947;BMP280;51469;52.150;4.682;2023-04-03T09:02:56;103562.91;;;14.39
64947;BMP280;51469;52.150;4.682;2023-04-03T09:08:43;103564.34;;;14.45
64947;BMP280;51469;52.150;4.682;2023-04-03T09:21:42;103560.19;;;15.04
64947;BMP280;51469;52.150;4.682;2023-04-03T09:24:11;103555.63;;;15.20
64947;BMP280;51469;52.150;4.682;2023-04-03T09:26:52;103557.44;;;15.04
64947;BMP280;51469;52.150;4.682;2023-04-03T09:29:21;103553.22;;;14.86
64947;BMP280;51469;52.150;4.682;2023-04-03T09:31:59;103540.75;;;14.80
64947;BMP280;51469;52.150;4.682;2023-04-03T09:34:31;103540.34;;;14.90
64947;BMP280;51469;52.150;4.682;2023-04-03T09:36:58;103542.91;;;14.95
64947;BMP280;51469;52.150;4.682;2023-04-03T09:39:32;103542.56;;;15.08
64947;BMP280;51469;52.150;4.682;2023-04-03T09:42:34;103533.47;;;15.08
64947;BMP280;51469;52.150;4.682;2023-04-03T09:45:22;103529.56;;;14.97
64947;BMP280;51469;52.150;4.682;2023-04-03T09:47:48;103526.72;;;15.18
64947;BMP280;51469;52.150;4.682;2023-04-03T09:52:40;103536.41;;;15.60
64947;BMP280;51469;52.150;4.682;2023-04-03T09:55:25;103535.84;;;15.66
64947;BMP280;51469;52.150;4.682;2023-04-03T09:58:01;103538.13;;;15.64
64947;BMP280;51469;52.150;4.682;2023-04-03T10:00:31;103536.78;;;15.46
64947;BMP280;51469;52.150;4.682;2023-04-03T10:02:58;103524.53;;;15.35
64947;BMP280;51469;52.150;4.682;2023-04-03T10:05:44;103495.72;;;15.24
64947;BMP280;51469;52.150;4.682;2023-04-03T10:10:40;103513.00;;;15.69
64947;BMP280;51469;52.150;4.682;2023-04-03T10:13:26;103498.47;;;15.84
64947;BMP280;51469;52.150;4.682;2023-04-03T10:16:09;103501.34;;;15.64
64947;BMP280;51469;52.150;4.682;2023-04-03T10:23:51;103498.47;;;15.48
64947;BMP280;51469;52.150;4.682;2023-04-03T10:27:01;103499.63;;;15.71
64947;BMP280;51469;52.150;4.682;2023-04-03T10:32:49;103494.97;;;15.87
64947;BMP280;51469;52.150;4.682;2023-04-03T10:35:33;103470.47;;;16.01
64947;BMP280;51469;52.150;4.682;2023-04-03T10:38:10;103479.25;;;16.03
64947;BMP280;51469;52.150;4.682;2023-04-03T10:43:33;103496.47;;;16.36
64947;BMP280;51469;52.150;4.682;2023-04-03T10:54:24;103480.38;;;17.00
64947;BMP280;51469;52.150;4.682;2023-04-03T10:57:00;103481.34;;;16.77
64947;BMP280;51469;52.150;4.682;2023-04-03T10:59:32;103493.16;;;17.05
64947;BMP280;51469;52.150;4.682;2023-04-03T11:02:06;103492.25;;;17.01
64947;BMP280;51469;52.150;4.682;2023-04-03T11:04:37;103482.06;;;17.20
64947;BMP280;51469;52.150;4.682;2023-04-03T11:07:11;103485.25;;;17.22
64947;BMP280;51469;52.150;4.682;2023-04-03T11:09:40;103477.66;;;17.19
64947;BMP280;51469;52.150;4.682;2023-04-03T11:14:40;103470.06;;;17.32
64947;BMP280;51469;52.150;4.682;2023-04-03T11:17:26;103473.78;;;17.55
64947;BMP280;51469;52.150;4.682;2023-04-03T11:20:10;103468.88;;;17.48
64947;BMP280;51469;52.150;4.682;2023-04-03T11:22:42;103476.47;;;17.70
64947;BMP280;51469;52.150;4.682;2023-04-03T11:27:43;103473.78;;;17.55
64947;BMP280;51469;52.150;4.682;2023-04-03T11:30:19;103473.91;;;17.61
64947;BMP280;51469;52.150;4.682;2023-04-03T11:35:47;103456.78;;;17.41
64947;BMP280;51469;52.150;4.682;2023-04-03T11:38:26;103445.09;;;17.16
64947;BMP280;51469;52.150;4.682;2023-04-03T11:40:55;103437.34;;;17.41
64947;BMP280;51469;52.150;4.682;2023-04-03T11:43:26;103445.69;;;17.41
64947;BMP280;51469;52.150;4.682;2023-04-03T11:45:57;103433.53;;;17.64
64947;BMP280;51469;52.150;4.682;2023-04-03T11:51:00;103439.09;;;17.83
64947;BMP280;51469;52.150;4.682;2023-04-03T11:53:35;103419.75;;;17.52
64947;BMP280;51469;52.150;4.682;2023-04-03T12:04:10;103415.19;;;17.60
64947;BMP280;51469;52.150;4.682;2023-04-03T12:09:22;103384.50;;;17.37
64947;BMP280;51469;52.150;4.682;2023-04-03T12:11:49;103404.09;;;17.60
64947;BMP280;51469;52.150;4.682;2023-04-03T12:14:15;103400.91;;;17.61
64947;BMP280;51469;52.150;4.682;2023-04-03T12:16:45;103393.91;;;17.67
64947;BMP280;51469;52.150;4.682;2023-04-03T12:48:18;103369.19;;;18.00
64947;BMP280;51469;52.150;4.682;2023-04-03T12:50:47;103353.63;;;18.18
64947;BMP280;51469;52.150;4.682;2023-04-03T12:53:19;103356.50;;;18.44
64947;BMP280;51469;52.150;4.682;2023-04-03T12:55:47;103358.63;;;18.54
64947;BMP280;51469;52.150;4.682;2023-04-03T12:58:27;103359.94;;;18.15
64947;BMP280;51469;52.150;4.682;2023-04-03T13:01:04;103358.03;;;18.41
64947;BMP280;51469;52.150;4.682;2023-04-03T13:03:33;103351.31;;;18.20
64947;BMP280;51469;52.150;4.682;2023-04-03T13:06:01;103357.91;;;18.34
64947;BMP280;51469;52.150;4.682;2023-04-03T13:08:28;103353.94;;;18.13
64947;BMP280;51469;52.150;4.682;2023-04-03T13:11:05;103361.38;;;18.05
64947;BMP280;51469;52.150;4.682;2023-04-03T13:13:31;103338.69;;;18.26
64947;BMP280;51469;52.150;4.682;2023-04-03T13:15:57;103345.47;;;18.06
64947;BMP280;51469;52.150;4.682;2023-04-03T13:20:48;103350.78;;;17.92
64947;BMP280;51469;52.150;4.682;2023-04-03T13:23:17;103319.50;;;17.76
64947;BMP280;51469;52.150;4.682;2023-04-03T13:25:46;103349.13;;;18.32
64947;BMP280;51469;52.150;4.682;2023-04-03T13:28:15;103347.81;;;18.49
64947;BMP280;51469;52.150;4.682;2023-04-03T13:30:59;103342.66;;;18.25
64947;BMP280;51469;52.150;4.682;2023-04-03T13:33:30;103348.00;;;18.14
64947;BMP280;51469;52.150;4.682;2023-04-03T13:36:02;103331.09;;;18.00
64947;BMP280;51469;52.150;4.682;2023-04-03T13:38:30;103336.44;;;17.90
64947;BMP280;51469;52.150;4.682;2023-04-03T13:41:00;103342.56;;;18.21
64947;BMP280;51469;52.150;4.682;2023-04-03T13:43:31;103334.06;;;18.11
64947;BMP280;51469;52.150;4.682;2023-04-03T13:46:21;103336.97;;;18.18
64947;BMP280;51469;52.150;4.682;2023-04-03T13:48:50;103329.75;;;17.72
64947;BMP280;51469;52.150;4.682;2023-04-03T13:51:20;103333.94;;;17.85
64947;BMP280;51469;52.150;4.682;2023-04-03T13:54:16;103330.78;;;18.28
64947;BMP280;51469;52.150;4.682;2023-04-03T13:56:43;103335.22;;;18.55
64947;BMP280;51469;52.150;4.682;2023-04-03T14:01:50;103340.47;;;18.60
64947;BMP280;51469;52.150;4.682;2023-04-03T14:06:46;103326.31;;;18.46
64947;BMP280;51469;52.150;4.682;2023-04-03T14:09:12;103313.19;;;18.69
64947;BMP280;51469;52.150;4.682;2023-04-03T14:11:38;103308.06;;;18.71
64947;BMP280;51469;52.150;4.682;2023-04-03T14:14:36;103320.63;;;18.87
64947;BMP280;51469;52.150;4.682;2023-04-03T14:17:13;103297.75;;;18.49
64947;BMP280;51469;52.150;4.682;2023-04-03T14:19:38;103314.84;;;18.47
64947;BMP280;51469;52.150;4.682;2023-04-03T14:22:31;103309.34;;;18.06
64947;BMP280;51469;52.150;4.682;2023-04-03T14:24:57;103297.53;;;18.12
64947;BMP280;51469;52.150;4.682;2023-04-03T14:27:26;103305.31;;;18.26
64947;BMP280;51469;52.150;4.682;2023-04-03T14:29:53;103304.78;;;18.39
64947;BMP280;51469;52.150;4.682;2023-04-03T14:32:21;103298.28;;;17.87
64947;BMP280;51469;52.150;4.682;2023-04-03T14:34:48;103295.25;;;18.18
64947;BMP280;51469;52.150;4.682;2023-04-03T14:37:18;103305.97;;;18.16
64947;BMP280;51469;52.150;4.682;2023-04-03T14:39:44;103300.75;;;18.37
64947;BMP280;51469;52.150;4.682;2023-04-03T14:42:13;103295.94;;;18.34
64947;BMP280;51469;52.150;4.682;2023-04-03T14:44:38;103287.41;;;18.46
64947;BMP280;51469;52.150;4.682;2023-04-03T14:47:04;103301.09;;;18.58
64947;BMP280;51469;52.150;4.682;2023-04-03T14:49:30;103296.81;;;18.38
64947;BMP280;51469;52.150;4.682;2023-04-03T14:51:58;103298.59;;;18.04
64947;BMP280;51469;52.150;4.682;2023-04-03T14:54:24;103299.91;;;18.33
64947;BMP280;51469;52.150;4.682;2023-04-03T14:56:55;103289.75;;;18.44
64947;BMP280;51469;52.150;4.682;2023-04-03T14:59:21;103291.47;;;18.52
64947;BMP280;51469;52.150;4.682;2023-04-03T15:01:47;103306.31;;;18.37
64947;BMP280;51469;52.150;4.682;2023-04-03T15:04:18;103293.25;;;18.15
64947;BMP280;51469;52.150;4.682;2023-04-03T15:06:44;103285.63;;;18.12
64947;BMP280;51469;52.150;4.682;2023-04-03T15:09:22;103289.53;;;18.30
64947;BMP280;51469;52.150;4.682;2023-04-03T15:11:49;103290.72;;;18.06
64947;BMP280;51469;52.150;4.682;2023-04-03T15:14:15;103285.81;;;18.00
64947;BMP280;51469;52.150;4.682;2023-04-03T15:16:40;103277.22;;;18.31
64947;BMP280;51469;52.150;4.682;2023-04-03T15:19:06;103272.72;;;18.49
64947;BMP280;51469;52.150;4.682;2023-04-03T15:21:31;103275.50;;;18.49
64947;BMP280;51469;52.150;4.682;2023-04-03T15:23:56;103289.53;;;18.30
64947;BMP280;51469;52.150;4.682;2023-04-03T15:26:22;103279.78;;;18.17
64947;BMP280;51469;52.150;4.682;2023-04-03T15:28:47;103276.06;;;18.32
64947;BMP280;51469;52.150;4.682;2023-04-03T15:31:12;103271.66;;;18.31
64947;BMP280;51469;52.150;4.682;2023-04-03T15:33:38;103275.19;;;18.54
64947;BMP280;51469;52.150;4.682;2023-04-03T15:36:04;103278.41;;;18.56
64947;BMP280;51469;52.150;4.682;2023-04-03T15:38:30;103273.34;;;18.13
64947;BMP280;51469;52.150;4.682;2023-04-03T15:40:55;103263.09;;;18.17
64947;BMP280;51469;52.150;4.682;2023-04-03T15:43:21;103266.59;;;18.14
64947;BMP280;51469;52.150;4.682;2023-04-03T15:45:47;103260.81;;;18.00
64947;BMP280;51469;52.150;4.682;2023-04-03T15:48:13;103266.38;;;17.77
64947;BMP280;51469;52.150;4.682;2023-04-03T15:50:39;103268.09;;;17.85
64947;BMP280;51469;52.150;4.682;2023-04-03T15:53:05;103259.41;;;17.65
64947;BMP280;51469;52.150;4.682;2023-04-03T15:55:32;103266.16;;;17.67
64947;BMP280;51469;52.150;4.682;2023-04-03T15:57:58;103267.03;;;17.71